Time;durP1;ratioP1;P1;durP2;ratioP2;P2;SDS_P1;SDS_P2;PMS_P1;PMS_P2;Temp;Humidity;BMP_temperature;BMP_pressure;BME280_temperature;BME280_humidity;BME280_pressure;Samples;Min_cycle;Max_cycle;Signal;HPM_P1;HPM_P2
2023/11/11 00:01:43;;;;;;;18.00;12.47;;;7.40;99.90;;;;;;5068422;28;20056;-81
2023/11/11 00:04:09;;;;;;;22.37;13.40;;;7.40;99.90;;;;;;5069683;28;20047;-80
2023/11/11 00:06:34;;;;;;;17.33;12.20;;;7.30;99.90;;;;;;5068204;28;20541;-80
2023/11/11 00:09:00;;;;;;;22.50;14.17;;;7.30;99.90;;;;;;5069135;28;20530;-80
2023/11/11 00:11:26;;;;;;;24.80;14.10;;;7.30;99.90;;;;;;5069369;28;20111;-80
2023/11/11 00:13:51;;;;;;;19.27;14.00;;;7.20;99.90;;;;;;5069476;28;20120;-80
2023/11/11 00:16:19;;;;;;;20.97;15.00;;;7.20;99.90;;;;;;5069571;28;20498;-80
2023/11/11 00:18:45;;;;;;;22.90;14.47;;;7.20;99.90;;;;;;5069670;28;20075;-79
2023/11/11 00:21:11;;;;;;;19.03;14.63;;;7.20;99.90;;;;;;5069127;28;20086;-80
2023/11/11 00:23:37;;;;;;;16.37;12.93;;;7.10;99.90;;;;;;5069250;28;20136;-80
2023/11/11 00:26:04;;;;;;;18.20;13.40;;;7.10;99.90;;;;;;5069607;28;20032;-80
2023/11/11 00:28:30;;;;;;;20.03;13.07;;;7.10;99.90;;;;;;5067849;28;20039;-80
2023/11/11 00:30:55;;;;;;;18.63;12.73;;;7.00;99.90;;;;;;5069423;28;20111;-80
2023/11/11 00:33:22;;;;;;;18.43;13.67;;;7.00;99.90;;;;;;5069080;28;20020;-80
2023/11/11 00:35:47;;;;;;;20.07;14.87;;;7.00;99.90;;;;;;5069399;28;20024;-80
2023/11/11 00:38:14;;;;;;;19.20;12.83;;;7.00;99.90;;;;;;5069343;28;20094;-80
2023/11/11 00:40:40;;;;;;;19.37;13.27;;;6.90;99.90;;;;;;5067026;22;20099;-79
2023/11/11 00:43:07;;;;;;;19.37;12.40;;;6.90;99.90;;;;;;5057737;28;20029;-80
2023/11/11 00:45:33;;;;;;;18.33;13.40;;;6.90;99.90;;;;;;5061607;28;20044;-79
2023/11/11 00:48:00;;;;;;;17.83;12.67;;;6.80;99.90;;;;;;5062122;28;20112;-80
2023/11/11 00:50:26;;;;;;;19.33;13.07;;;6.80;99.90;;;;;;5060411;28;20017;-78
2023/11/11 00:52:52;;;;;;;20.30;14.30;;;6.80;99.90;;;;;;5063510;28;20049;-79
2023/11/11 00:55:18;;;;;;;19.23;13.97;;;6.80;99.90;;;;;;5061662;28;20028;-79
2023/11/11 00:57:46;;;;;;;20.93;13.60;;;6.70;99.90;;;;;;5062033;28;20029;-80
2023/11/11 01:00:12;;;;;;;21.13;14.40;;;6.70;99.90;;;;;;5062180;28;20021;-80
2023/11/11 01:02:38;;;;;;;19.83;14.83;;;6.70;99.90;;;;;;5062254;28;20052;-80
2023/11/11 01:05:04;;;;;;;20.40;14.63;;;6.60;99.90;;;;;;5063536;28;20017;-79
2023/11/11 01:07:30;;;;;;;20.67;14.60;;;6.60;99.90;;;;;;5060878;28;20052;-80
2023/11/11 01:09:56;;;;;;;20.67;14.03;;;6.50;99.90;;;;;;5062700;28;20375;-79
2023/11/11 01:12:22;;;;;;;23.03;14.70;;;6.60;99.90;;;;;;5060268;28;20017;-79
2023/11/11 01:14:49;;;;;;;18.67;13.00;;;6.60;99.90;;;;;;5062094;28;20356;-80
2023/11/11 01:17:15;;;;;;;19.97;14.13;;;6.60;99.90;;;;;;5061843;28;20032;-79
2023/11/11 01:19:41;;;;;;;25.93;14.50;;;6.50;99.90;;;;;;5062535;28;20056;-79
2023/11/11 01:22:09;;;;;;;21.90;14.77;;;6.50;99.90;;;;;;5066754;28;20025;-78
2023/11/11 01:24:35;;;;;;;20.07;13.27;;;6.50;99.90;;;;;;5063982;28;20032;-80
2023/11/11 01:27:02;;;;;;;23.33;14.17;;;6.50;99.90;;;;;;5065782;28;20044;-79
2023/11/11 01:29:27;;;;;;;25.63;15.53;;;6.50;99.90;;;;;;5063581;28;20028;-80
2023/11/11 01:31:53;;;;;;;23.67;14.57;;;6.50;99.90;;;;;;5065473;28;20151;-79
2023/11/11 01:34:18;;;;;;;21.43;14.33;;;6.50;99.90;;;;;;5064150;28;20056;-79
2023/11/11 01:36:44;;;;;;;22.27;15.23;;;6.50;99.90;;;;;;5065179;28;20036;-79
2023/11/11 01:39:10;;;;;;;22.03;12.80;;;6.50;99.90;;;;;;5065988;28;20076;-79
2023/11/11 01:41:36;;;;;;;18.00;11.27;;;6.50;99.90;;;;;;5064086;28;20021;-79
2023/11/11 01:44:01;;;;;;;20.10;12.33;;;6.60;99.90;;;;;;5065491;28;20036;-80
2023/11/11 01:46:28;;;;;;;18.07;11.67;;;6.60;99.90;;;;;;5063247;28;20017;-81
2023/11/11 01:48:55;;;;;;;17.73;10.80;;;6.60;99.90;;;;;;5065440;28;20055;-79
2023/11/11 01:51:22;;;;;;;17.33;10.47;;;6.60;99.90;;;;;;5065273;28;20048;-79
2023/11/11 01:53:48;;;;;;;19.87;11.20;;;6.60;99.90;;;;;;5064619;28;20029;-79
2023/11/11 01:56:14;;;;;;;16.53;9.97;;;6.60;99.90;;;;;;5064349;28;20021;-79
2023/11/11 01:58:41;;;;;;;14.03;9.70;;;6.60;99.90;;;;;;5063758;28;20032;-79
2023/11/11 02:01:07;;;;;;;15.67;8.50;;;6.50;99.90;;;;;;5066385;28;20021;-79
2023/11/11 02:03:34;;;;;;;14.10;7.90;;;6.60;99.90;;;;;;5063321;28;20059;-79
2023/11/11 02:06:01;;;;;;;12.30;7.13;;;6.50;99.90;;;;;;5064871;28;20021;-79
2023/11/11 02:08:31;;;;;;;15.33;7.13;;;6.50;99.90;;;;;;5062693;28;20514;-78
2023/11/11 02:11:01;;;;;;;12.83;7.03;;;6.50;99.90;;;;;;5064725;28;20021;-78
2023/11/11 02:13:30;;;;;;;10.17;6.47;;;6.50;99.90;;;;;;5066068;28;20017;-79
2023/11/11 02:15:56;;;;;;;11.37;6.33;;;6.50;99.90;;;;;;5063373;28;20013;-79
2023/11/11 02:18:22;;;;;;;10.00;5.30;;;6.50;99.90;;;;;;5064351;28;20029;-79
2023/11/11 02:20:49;;;;;;;11.50;6.03;;;6.50;99.90;;;;;;5062591;28;20380;-79
2023/11/11 02:23:16;;;;;;;13.07;5.83;;;6.50;99.90;;;;;;5064472;28;20021;-80
2023/11/11 02:25:42;;;;;;;12.50;5.27;;;6.50;99.90;;;;;;5063143;28;20093;-79
2023/11/11 02:28:07;;;;;;;15.73;5.33;;;6.50;99.90;;;;;;5064065;28;20029;-79
2023/11/11 02:30:33;;;;;;;11.23;5.60;;;6.50;99.90;;;;;;5063100;28;20116;-79
2023/11/11 02:32:59;;;;;;;12.23;5.00;;;6.50;99.90;;;;;;5062836;28;20040;-79
2023/11/11 02:35:25;;;;;;;9.63;5.30;;;6.50;99.90;;;;;;5064385;28;20025;-79
2023/11/11 02:37:51;;;;;;;12.63;5.00;;;6.50;99.90;;;;;;5062266;28;20028;-79
2023/11/11 02:40:16;;;;;;;14.57;4.73;;;6.50;99.90;;;;;;5064097;28;20045;-78
2023/11/11 02:42:43;;;;;;;11.00;4.77;;;6.40;99.90;;;;;;5062223;28;20025;-79
2023/11/11 02:45:09;;;;;;;9.10;4.57;;;6.50;99.90;;;;;;5064221;28;20040;-79
2023/11/11 02:47:35;;;;;;;7.70;4.23;;;6.40;99.90;;;;;;5063710;28;20024;-79
2023/11/11 02:50:02;;;;;;;7.73;3.10;;;6.40;99.90;;;;;;5063012;28;20021;-78
2023/11/11 02:52:28;;;;;;;6.43;3.10;;;6.40;99.90;;;;;;5064008;28;20029;-78
2023/11/11 02:54:54;;;;;;;11.50;3.63;;;6.40;99.90;;;;;;5063556;28;20036;-78
2023/11/11 02:57:19;;;;;;;8.37;3.23;;;6.40;99.90;;;;;;5063969;28;20029;-77
2023/11/11 02:59:45;;;;;;;4.23;2.07;;;6.40;99.90;;;;;;5062388;28;20037;-78
2023/11/11 03:02:13;;;;;;;6.40;2.60;;;6.40;99.90;;;;;;5063987;28;20472;-78
2023/11/11 03:04:39;;;;;;;8.17;2.30;;;6.50;99.90;;;;;;5062951;28;20080;-78
2023/11/11 03:07:05;;;;;;;6.07;2.07;;;6.60;99.90;;;;;;5062621;28;20017;-78
2023/11/11 03:09:32;;;;;;;5.63;2.37;;;6.60;99.90;;;;;;5063622;28;20029;-78
2023/11/11 03:11:58;;;;;;;7.70;2.70;;;6.70;99.90;;;;;;5062055;28;20025;-78
2023/11/11 03:14:26;;;;;;;7.97;2.37;;;6.70;99.90;;;;;;5065022;28;20025;-79
2023/11/11 03:16:52;;;;;;;9.67;2.07;;;6.80;99.90;;;;;;5061731;28;20021;-79
2023/11/11 03:19:18;;;;;;;5.43;1.20;;;6.80;99.90;;;;;;5063340;28;20083;-78
2023/11/11 03:21:45;;;;;;;6.03;1.00;;;6.90;99.90;;;;;;5062515;28;20031;-78
2023/11/11 03:24:10;;;;;;;4.13;1.00;;;6.90;99.90;;;;;;5063991;28;20017;-78
2023/11/11 03:26:36;;;;;;;3.33;0.97;;;6.90;99.90;;;;;;5063695;28;20115;-78
2023/11/11 03:29:02;;;;;;;3.27;0.90;;;6.90;99.90;;;;;;5061174;28;20029;-78
2023/11/11 03:31:27;;;;;;;3.07;0.70;;;6.90;99.90;;;;;;5063375;28;20071;-78
2023/11/11 03:33:53;;;;;;;6.53;0.80;;;6.90;99.90;;;;;;5061118;28;20025;-78
2023/11/11 03:36:19;;;;;;;2.87;0.70;;;7.00;99.90;;;;;;5063026;28;20025;-78
2023/11/11 03:38:45;;;;;;;2.90;0.73;;;7.00;99.90;;;;;;5061834;28;20036;-78
2023/11/11 03:41:10;;;;;;;7.10;0.87;;;6.90;99.90;;;;;;5062418;28;20022;-79
2023/11/11 03:43:36;;;;;;;4.43;0.80;;;6.90;99.90;;;;;;5063935;28;20472;-78
2023/11/11 03:46:05;;;;;;;4.03;0.80;;;6.90;99.90;;;;;;5061279;28;20439;-78
2023/11/11 03:48:31;;;;;;;4.40;1.20;;;7.00;99.90;;;;;;5062832;28;20021;-79
2023/11/11 03:50:57;;;;;;;4.03;0.67;;;7.00;99.90;;;;;;5060923;28;20075;-79
2023/11/11 03:53:23;;;;;;;3.97;0.90;;;6.90;99.90;;;;;;5062855;28;20024;-79
2023/11/11 03:55:49;;;;;;;5.27;1.00;;;7.00;99.90;;;;;;5061349;28;20092;-79
2023/11/11 03:58:15;;;;;;;7.73;1.30;;;7.00;99.90;;;;;;5062110;28;20444;-79
2023/11/11 04:00:44;;;;;;;2.70;0.70;;;7.00;99.90;;;;;;5062477;28;20021;-79
2023/11/11 04:03:10;;;;;;;5.07;1.00;;;7.00;99.90;;;;;;5061177;28;20017;-79
2023/11/11 04:05:36;;;;;;;3.57;0.80;;;7.10;99.90;;;;;;5062394;28;20025;-79
2023/11/11 04:08:03;;;;;;;5.63;0.80;;;7.10;99.90;;;;;;5061171;28;20060;-79
2023/11/11 04:10:30;;;;;;;4.63;0.80;;;7.20;99.90;;;;;;5064218;28;20083;-78
2023/11/11 04:12:59;;;;;;;3.03;0.90;;;7.20;99.90;;;;;;5062885;28;20067;-79
2023/11/11 04:15:24;;;;;;;5.30;0.90;;;7.20;99.90;;;;;;5061679;28;20036;-78
2023/11/11 04:17:50;;;;;;;5.20;0.93;;;7.20;99.90;;;;;;5062220;28;20033;-78
2023/11/11 04:20:17;;;;;;;6.27;0.80;;;7.30;99.90;;;;;;5061055;28;20058;-79
2023/11/11 04:22:43;;;;;;;6.77;1.10;;;7.20;99.90;;;;;;5062840;28;20416;-79
2023/11/11 04:25:10;;;;;;;1.93;0.60;;;7.20;99.90;;;;;;5061495;28;20017;-80
2023/11/11 04:27:36;;;;;;;3.60;0.70;;;7.30;99.90;;;;;;5063685;28;20555;-79
2023/11/11 04:30:06;;;;;;;3.60;0.70;;;7.20;99.90;;;;;;5061717;28;20028;-79
2023/11/11 04:32:33;;;;;;;7.53;1.17;;;7.20;99.90;;;;;;5063325;28;20028;-79
2023/11/11 04:34:59;;;;;;;4.33;1.20;;;7.20;99.90;;;;;;5061952;28;20039;-79
2023/11/11 04:37:25;;;;;;;6.53;0.70;;;7.20;99.90;;;;;;5060584;28;20025;-79
2023/11/11 04:39:57;;;;;;;3.40;0.77;;;7.10;99.90;;;;;;5063296;28;20105;-79
2023/11/11 04:42:24;;;;;;;9.33;0.90;;;7.20;99.90;;;;;;5060371;28;20036;-80
2023/11/11 04:44:53;;;;;;;8.30;1.17;;;7.20;99.90;;;;;;5062130;28;20484;-79
2023/11/11 04:47:20;;;;;;;5.20;1.30;;;7.20;99.90;;;;;;5062236;28;20029;-79
2023/11/11 04:49:49;;;;;;;5.87;1.17;;;7.20;99.90;;;;;;5061505;28;20361;-80
2023/11/11 04:52:15;;;;;;;6.30;0.97;;;7.20;99.90;;;;;;5062273;28;20033;-79
2023/11/11 04:54:44;;;;;;;4.87;1.10;;;7.20;99.90;;;;;;5061404;28;20476;-79
2023/11/11 04:57:10;;;;;;;8.37;0.93;;;7.20;99.90;;;;;;5067538;28;20021;-79
2023/11/11 04:59:35;;;;;;;4.63;1.20;;;7.20;99.90;;;;;;5064312;28;20068;-79
2023/11/11 05:02:02;;;;;;;5.90;1.33;;;7.30;99.90;;;;;;5065822;28;20025;-79
2023/11/11 05:04:27;;;;;;;3.73;0.70;;;7.20;99.90;;;;;;5066689;28;20045;-79
2023/11/11 05:06:53;;;;;;;4.13;0.80;;;7.20;99.90;;;;;;5065230;28;20017;-79
2023/11/11 05:09:20;;;;;;;1.53;0.50;;;7.20;99.90;;;;;;5065585;28;20017;-79
2023/11/11 05:11:47;;;;;;;2.53;0.50;;;7.20;99.90;;;;;;5064282;28;20020;-79
2023/11/11 05:14:17;;;;;;;5.23;0.60;;;7.00;99.90;;;;;;5065977;28;20036;-80
2023/11/11 05:16:50;;;;;;;4.43;0.70;;;7.20;99.90;;;;;;5063856;28;20079;-79
2023/11/11 05:19:20;;;;;;;6.03;0.97;;;7.20;99.90;;;;;;5065581;28;20463;-78
2023/11/11 05:21:46;;;;;;;3.97;1.10;;;7.20;99.90;;;;;;5064830;28;20503;-79
2023/11/11 05:24:13;;;;;;;6.83;0.60;;;7.20;99.90;;;;;;5066048;28;20047;-79
2023/11/11 05:26:39;;;;;;;4.70;1.17;;;7.10;99.90;;;;;;5067158;28;20017;-79
2023/11/11 05:29:06;;;;;;;6.53;1.20;;;7.10;99.90;;;;;;5063467;28;20028;-79
2023/11/11 05:31:32;;;;;;;3.50;1.03;;;7.20;99.90;;;;;;5065322;28;20021;-79
2023/11/11 05:33:58;;;;;;;2.13;0.67;;;7.20;99.90;;;;;;5064012;28;20494;-79
2023/11/11 05:36:25;;;;;;;2.80;0.80;;;7.20;99.90;;;;;;5065609;28;20020;-79
2023/11/11 05:38:50;;;;;;;5.40;0.93;;;7.20;99.90;;;;;;5064254;28;20068;-79
2023/11/11 05:41:16;;;;;;;6.23;0.80;;;7.20;99.90;;;;;;5065879;28;20025;-79
2023/11/11 05:43:42;;;;;;;6.53;1.03;;;7.20;99.90;;;;;;5065630;28;20026;-79
2023/11/11 05:46:08;;;;;;;4.07;1.57;;;7.20;99.90;;;;;;5063351;28;20021;-79
2023/11/11 05:48:37;;;;;;;4.57;0.70;;;7.20;99.90;;;;;;5065473;28;20032;-80
2023/11/11 05:51:04;;;;;;;5.53;0.90;;;7.20;99.90;;;;;;5063431;28;20021;-80
2023/11/11 05:53:31;;;;;;;5.70;1.03;;;7.10;99.90;;;;;;5066033;28;20028;-80
2023/11/11 05:55:56;;;;;;;5.00;1.00;;;7.10;99.90;;;;;;5065858;28;20029;-79
2023/11/11 05:58:22;;;;;;;4.27;1.10;;;7.10;99.90;;;;;;5064437;28;20624;-80
2023/11/11 06:00:47;;;;;;;4.17;1.40;;;7.00;99.90;;;;;;5064780;28;20085;-79
2023/11/11 06:03:13;;;;;;;6.77;1.10;;;6.90;99.90;;;;;;5063194;28;20020;-80
2023/11/11 06:05:38;;;;;;;4.93;1.00;;;7.00;99.90;;;;;;5064637;28;20098;-79
2023/11/11 06:08:04;;;;;;;3.90;1.13;;;6.90;99.90;;;;;;5062933;28;20035;-80
2023/11/11 06:10:30;;;;;;;4.13;0.80;;;6.80;99.90;;;;;;5066605;28;20029;-80
2023/11/11 06:12:59;;;;;;;6.77;1.03;;;6.80;99.90;;;;;;5063474;28;20487;-80
2023/11/11 06:15:25;;;;;;;4.67;0.90;;;6.80;99.90;;;;;;5064325;28;20033;-80
2023/11/11 06:17:51;;;;;;;4.03;0.93;;;6.70;99.90;;;;;;5064604;28;20025;-79
2023/11/11 06:20:17;;;;;;;3.33;1.00;;;6.70;99.90;;;;;;5063328;28;20024;-80
2023/11/11 06:22:42;;;;;;;4.20;0.90;;;6.70;99.90;;;;;;5064513;28;20062;-80
2023/11/11 06:25:08;;;;;;;4.27;0.80;;;6.70;99.90;;;;;;5062887;28;20017;-80
2023/11/11 06:27:34;;;;;;;4.83;0.70;;;6.60;99.90;;;;;;5064367;28;20029;-79
2023/11/11 06:30:00;;;;;;;2.43;0.47;;;6.60;99.90;;;;;;5062893;28;20074;-79
2023/11/11 06:32:26;;;;;;;4.53;0.70;;;6.70;99.90;;;;;;5064421;28;20033;-80
2023/11/11 06:34:52;;;;;;;2.97;0.70;;;6.60;99.90;;;;;;5063930;28;20434;-79
2023/11/11 06:37:19;;;;;;;3.50;0.73;;;6.60;99.90;;;;;;5064215;28;20025;-79
2023/11/11 06:39:45;;;;;;;2.73;0.80;;;6.60;99.90;;;;;;5064206;28;20075;-80
2023/11/11 06:42:10;;;;;;;3.87;1.47;;;6.60;99.90;;;;;;5062794;28;20092;-80
2023/11/11 06:44:36;;;;;;;4.23;1.10;;;6.60;99.90;;;;;;5064253;28;20775;-80
2023/11/11 06:47:02;;;;;;;3.30;1.37;;;6.60;99.90;;;;;;5062560;28;20055;-80
2023/11/11 06:49:28;;;;;;;4.20;1.50;;;6.60;99.90;;;;;;5064196;28;20488;-80
2023/11/11 06:51:53;;;;;;;5.23;1.50;;;6.60;99.90;;;;;;5063364;28;20032;-80
2023/11/11 06:54:19;;;;;;;7.07;2.17;;;6.60;99.90;;;;;;5048781;28;20025;-80
2023/11/11 06:56:45;;;;;;;5.60;2.03;;;6.60;99.90;;;;;;5049135;28;20025;-79
2023/11/11 06:59:11;;;;;;;4.97;1.90;;;6.60;99.90;;;;;;5052655;28;20065;-79
2023/11/11 07:01:37;;;;;;;7.73;2.17;;;6.60;99.90;;;;;;5059661;28;20071;-79
2023/11/11 07:04:03;;;;;;;10.43;2.00;;;6.60;99.90;;;;;;5061938;28;20077;-79
2023/11/11 07:06:29;;;;;;;6.60;1.73;;;6.60;99.90;;;;;;5057726;28;20013;-79
2023/11/11 07:08:55;;;;;;;9.60;2.10;;;6.50;99.90;;;;;;5044488;28;20466;-79
2023/11/11 07:11:21;;;;;;;5.07;2.00;;;6.60;99.90;;;;;;5059627;28;20031;-79
2023/11/11 07:13:47;;;;;;;4.73;1.63;;;6.50;99.90;;;;;;5060548;28;20049;-79
2023/11/11 07:16:17;;;;;;;4.50;2.60;;;6.50;99.90;;;;;;5058682;28;20531;-79
2023/11/11 07:18:44;;;;;;;5.60;2.23;;;6.50;99.90;;;;;;5059251;28;20441;-80
2023/11/11 07:21:20;;;;;;;8.30;2.43;;;6.50;99.90;;;;;;5058686;28;20077;-79
2023/11/11 07:23:46;;;;;;;7.97;3.13;;;6.50;99.90;;;;;;5060439;28;20017;-79
2023/11/11 07:26:11;;;;;;;7.37;2.40;;;6.50;99.90;;;;;;5059454;28;20018;-78
2023/11/11 07:28:38;;;;;;;6.27;1.80;;;6.50;99.90;;;;;;5058777;28;20021;-79
2023/11/11 07:31:04;;;;;;;7.63;1.50;;;6.40;99.90;;;;;;5044757;28;20025;-78
2023/11/11 07:33:30;;;;;;;3.60;1.03;;;6.50;99.90;;;;;;5042564;28;20034;-79
2023/11/11 07:35:56;;;;;;;3.20;1.00;;;6.50;99.90;;;;;;5045155;28;20025;-80
2023/11/11 07:38:21;;;;;;;2.73;0.80;;;6.40;99.90;;;;;;5043184;28;20151;-80
2023/11/11 07:40:47;;;;;;;2.20;0.83;;;6.50;99.90;;;;;;5060292;28;20092;-80
2023/11/11 07:43:13;;;;;;;4.40;0.90;;;6.40;99.90;;;;;;5059176;28;20025;-78
2023/11/11 07:45:38;;;;;;;3.30;0.90;;;6.40;99.90;;;;;;5051757;28;20089;-80
2023/11/11 07:48:05;;;;;;;6.97;0.87;;;6.40;99.90;;;;;;5057141;28;20029;-80
2023/11/11 07:50:31;;;;;;;5.17;1.00;;;6.40;99.90;;;;;;5058818;28;20826;-79
2023/11/11 07:52:56;;;;;;;2.73;0.77;;;6.40;99.90;;;;;;5050609;28;20530;-80
2023/11/11 07:55:22;;;;;;;4.53;0.70;;;6.40;99.90;;;;;;5058232;28;20055;-80
2023/11/11 07:57:49;;;;;;;1.40;0.60;;;6.40;99.90;;;;;;5054009;28;20053;-79
2023/11/11 08:00:18;;;;;;;2.43;0.70;;;6.40;99.90;;;;;;5057051;28;20118;-79
2023/11/11 08:02:49;;;;;;;4.60;0.63;;;6.40;99.90;;;;;;5061697;28;20044;-79
2023/11/11 08:05:17;;;;;;;4.70;0.80;;;6.50;99.90;;;;;;5060825;28;20025;-80
2023/11/11 08:07:42;;;;;;;1.93;0.60;;;6.50;99.90;;;;;;5053082;28;20051;-79
2023/11/11 08:10:11;;;;;;;2.97;0.70;;;6.50;99.90;;;;;;5057220;28;20029;-79
2023/11/11 08:12:38;;;;;;;2.50;0.73;;;6.50;99.90;;;;;;5057095;28;20029;-79
2023/11/11 08:15:04;;;;;;;2.67;0.77;;;6.50;99.90;;;;;;5062133;28;20021;-79
2023/11/11 08:17:31;;;;;;;1.27;0.50;;;6.50;99.90;;;;;;5054830;28;20491;-79
2023/11/11 08:19:57;;;;;;;2.80;0.70;;;6.60;99.90;;;;;;5045814;28;20040;-79
2023/11/11 08:22:25;;;;;;;3.37;0.50;;;6.60;99.90;;;;;;5059278;28;20052;-80
2023/11/11 08:24:50;;;;;;;1.87;0.80;;;6.60;99.90;;;;;;5050942;28;20107;-79
2023/11/11 08:27:16;;;;;;;2.80;0.70;;;6.70;99.90;;;;;;5051607;28;20041;-79
2023/11/11 08:29:42;;;;;;;2.87;0.60;;;6.60;99.90;;;;;;5049226;28;20033;-79
2023/11/11 08:32:07;;;;;;;3.43;0.70;;;6.70;99.90;;;;;;5054220;28;20036;-79
2023/11/11 08:34:34;;;;;;;3.47;0.70;;;6.70;99.90;;;;;;5052166;28;20017;-79
2023/11/11 08:36:59;;;;;;;2.93;1.07;;;6.80;99.90;;;;;;5051853;28;20029;-79
2023/11/11 08:39:25;;;;;;;5.20;0.70;;;6.90;99.90;;;;;;5052430;28;20044;-78
2023/11/11 08:41:52;;;;;;;1.50;0.70;;;6.90;99.90;;;;;;5056385;28;20029;-79
2023/11/11 08:44:18;;;;;;;1.73;0.60;;;7.10;99.90;;;;;;5063473;28;20025;-79
2023/11/11 08:46:43;;;;;;;2.07;0.60;;;7.20;99.90;;;;;;5060400;28;20102;-79
2023/11/11 08:49:09;;;;;;;1.63;0.40;;;7.40;99.90;;;;;;5058051;28;20026;-79
2023/11/11 08:51:35;;;;;;;2.27;0.50;;;7.40;99.90;;;;;;5057176;28;20059;-79
2023/11/11 08:54:00;;;;;;;3.13;0.50;;;7.50;99.90;;;;;;5061273;28;20398;-79
2023/11/11 08:56:28;;;;;;;3.07;0.60;;;7.50;99.90;;;;;;5061543;28;20039;-79
2023/11/11 08:58:57;;;;;;;1.73;0.50;;;7.60;99.90;;;;;;5049805;28;20032;-79
2023/11/11 09:01:23;;;;;;;2.47;0.50;;;7.60;99.90;;;;;;5052819;28;20053;-80
2023/11/11 09:03:49;;;;;;;4.83;0.70;;;7.70;99.90;;;;;;5044474;28;20131;-79
2023/11/11 09:06:17;;;;;;;1.83;0.80;;;7.80;99.90;;;;;;5042256;28;20029;-79
2023/11/11 09:08:43;;;;;;;2.00;0.70;;;7.90;99.90;;;;;;5041992;28;20032;-79
2023/11/11 09:11:11;;;;;;;2.43;0.70;;;7.90;99.90;;;;;;5041407;28;20098;-79
2023/11/11 09:13:37;;;;;;;2.63;0.63;;;7.90;99.90;;;;;;5041916;28;20028;-79
2023/11/11 09:16:03;;;;;;;11.30;1.37;;;7.90;99.90;;;;;;5040683;28;20045;-79
2023/11/11 09:18:29;;;;;;;3.17;0.60;;;7.90;99.90;;;;;;5052203;28;20037;-79
2023/11/11 09:20:55;;;;;;;2.77;0.60;;;7.90;99.90;;;;;;5060007;28;20383;-79
2023/11/11 09:23:21;;;;;;;3.43;0.63;;;7.90;99.90;;;;;;5057445;28;20034;-79
2023/11/11 09:25:47;;;;;;;2.40;0.70;;;7.90;99.90;;;;;;5059659;28;20158;-79
2023/11/11 09:28:14;;;;;;;2.07;0.80;;;7.90;99.90;;;;;;5060744;28;20040;-79
2023/11/11 09:30:40;;;;;;;2.03;0.80;;;7.90;99.90;;;;;;5060842;28;20070;-79
2023/11/11 09:33:06;;;;;;;3.10;0.80;;;7.90;99.90;;;;;;5060252;28;20032;-79
2023/11/11 09:35:32;;;;;;;3.50;0.80;;;7.90;99.90;;;;;;5061815;28;20016;-79
2023/11/11 09:37:57;;;;;;;3.13;0.97;;;7.90;99.90;;;;;;5059871;28;20025;-79
2023/11/11 09:40:23;;;;;;;5.00;1.20;;;8.00;99.90;;;;;;5061321;28;20044;-79
2023/11/11 09:42:49;;;;;;;4.40;0.70;;;8.10;99.90;;;;;;5062532;28;20017;-79
2023/11/11 09:45:15;;;;;;;3.10;0.97;;;8.20;99.90;;;;;;5064125;28;20049;-79
2023/11/11 09:47:42;;;;;;;3.63;0.93;;;8.40;99.90;;;;;;5065156;28;20029;-79
2023/11/11 09:50:12;;;;;;;5.07;1.27;;;8.40;99.90;;;;;;5062906;28;20025;-79
2023/11/11 09:52:38;;;;;;;4.27;1.20;;;8.40;99.90;;;;;;5064784;28;20033;-79
2023/11/11 09:55:05;;;;;;;4.93;1.50;;;8.50;99.90;;;;;;5061915;28;20084;-79
2023/11/11 09:57:33;;;;;;;7.27;1.97;;;8.70;99.90;;;;;;5063852;28;20021;-80
2023/11/11 10:00:00;;;;;;;4.90;1.57;;;9.10;99.90;;;;;;5062509;28;20766;-79
2023/11/11 10:02:26;;;;;;;6.55;1.67;;;9.50;99.90;;;;;;5063329;28;20017;-79
2023/11/11 10:04:53;;;;;;;6.43;1.63;;;9.90;99.90;;;;;;5063425;28;20021;-79
2023/11/11 10:07:21;;;;;;;3.83;1.08;;;10.60;99.90;;;;;;5062255;28;20021;-80
2023/11/11 10:09:51;;;;;;;4.82;1.50;;;11.40;99.90;;;;;;5063984;28;20032;-80
2023/11/11 10:12:17;;;;;;;5.72;1.20;;;12.20;99.90;;;;;;5062279;28;20025;-83
2023/11/11 10:14:43;;;;;;;6.70;1.33;;;12.80;99.90;;;;;;5063746;28;20112;-80
2023/11/11 10:17:11;;;;;;;3.40;1.27;;;13.00;99.90;;;;;;5062398;28;20085;-80
2023/11/11 10:19:42;;;;;;;4.95;1.20;;;13.20;99.90;;;;;;5063385;28;20481;-80
2023/11/11 10:22:08;;;;;;;5.15;1.33;;;13.30;99.90;;;;;;5063349;28;20032;-80
2023/11/11 10:24:43;;;;;;;3.70;1.63;;;13.20;99.90;;;;;;5062392;28;20021;-79
2023/11/11 10:27:09;;;;;;;5.82;1.80;;;13.10;99.90;;;;;;5063723;28;20021;-79
2023/11/11 10:29:36;;;;;;;4.57;1.80;;;12.90;99.90;;;;;;5061935;28;20017;-79
2023/11/11 10:32:09;;;;;;;7.70;2.00;;;12.70;99.90;;;;;;5063398;28;20032;-79
2023/11/11 10:34:38;;;;;;;6.07;2.15;;;12.60;99.90;;;;;;5062473;28;20132;-79
2023/11/11 10:37:05;;;;;;;5.35;1.52;;;12.60;99.90;;;;;;5062396;28;20028;-79
2023/11/11 10:39:34;;;;;;;7.30;1.80;;;12.50;99.90;;;;;;5016778;28;1325704;-79
2023/11/11 10:42:02;;;;;;;6.80;2.30;;;12.40;99.30;;;;;;5062520;28;20089;-79
2023/11/11 10:44:28;;;;;;;13.52;2.38;;;12.40;98.50;;;;;;5064402;28;20070;-79
2023/11/11 10:46:57;;;;;;;4.70;1.52;;;12.30;96.00;;;;;;5062138;28;20093;-79
2023/11/11 10:49:24;;;;;;;7.25;2.10;;;12.00;95.90;;;;;;5064207;28;20047;-79
2023/11/11 10:51:51;;;;;;;5.78;1.73;;;12.10;97.20;;;;;;5062255;28;20064;-79
2023/11/11 10:54:20;;;;;;;5.45;1.38;;;12.50;97.90;;;;;;5062729;28;20040;-79
2023/11/11 10:56:46;;;;;;;5.45;1.60;;;12.70;97.60;;;;;;5064109;28;20036;-79
2023/11/11 10:59:13;;;;;;;7.05;1.50;;;12.70;96.20;;;;;;5061724;28;20032;-80
2023/11/11 11:01:41;;;;;;;6.40;2.45;;;12.70;95.80;;;;;;5063811;28;20029;-79
2023/11/11 11:04:08;;;;;;;7.38;1.98;;;12.50;94.30;;;;;;5061841;28;20021;-79
2023/11/11 11:06:44;;;;;;;7.75;3.60;;;12.30;94.10;;;;;;5052627;28;20025;-79
2023/11/11 11:09:21;;;;;;;8.77;2.25;;;12.10;94.70;;;;;;5053484;28;20026;-79
2023/11/11 11:12:10;;;;;;;6.72;2.20;;;12.10;94.70;;;;;;5053447;28;20017;-79
2023/11/11 11:14:51;;;;;;;8.10;2.10;;;12.10;95.20;;;;;;5056664;28;20020;-79
2023/11/11 11:17:41;;;;;;;9.15;1.98;;;12.20;95.30;;;;;;5069569;28;20025;-79
2023/11/11 11:20:14;;;;;;;5.95;1.58;;;12.40;95.30;;;;;;5051122;28;20037;-80
2023/11/11 11:22:44;;;;;;;8.52;1.52;;;12.70;95.70;;;;;;5053239;28;20017;-80
2023/11/11 11:25:32;;;;;;;6.88;1.50;;;13.00;95.70;;;;;;5051543;28;20033;-81
2023/11/11 11:28:25;;;;;;;6.80;1.30;;;13.30;95.30;;;;;;5049287;28;20033;-79
2023/11/11 11:30:54;;;;;;;4.90;1.33;;;13.40;93.80;;;;;;5050095;28;20067;-79
2023/11/11 11:33:21;;;;;;;6.13;1.88;;;13.20;92.10;;;;;;5050319;28;20116;-78
2023/11/11 11:35:56;;;;;;;3.45;0.93;;;12.80;90.80;;;;;;5054757;28;20041;-79
2023/11/11 11:38:33;;;;;;;4.95;1.10;;;12.40;90.60;;;;;;5052291;28;20044;-79
2023/11/11 11:41:01;;;;;;;5.88;1.00;;;12.10;91.20;;;;;;5052127;28;20052;-79
2023/11/11 11:43:31;;;;;;;5.45;0.80;;;12.00;91.00;;;;;;5051593;28;20055;-79
2023/11/11 11:45:58;;;;;;;5.10;0.82;;;11.80;91.00;;;;;;5052922;28;20105;-79
2023/11/11 11:48:25;;;;;;;4.20;0.90;;;11.70;91.30;;;;;;5052201;28;20013;-79
2023/11/11 11:51:05;;;;;;;2.55;0.80;;;11.70;91.80;;;;;;5051681;28;20018;-79
2023/11/11 11:53:31;;;;;;;4.03;0.88;;;12.00;93.00;;;;;;5070027;28;20081;-79
2023/11/11 11:55:56;;;;;;;5.63;0.70;;;12.50;93.30;;;;;;5051923;28;20013;-79
2023/11/11 11:58:22;;;;;;;2.90;0.60;;;12.50;92.60;;;;;;5051132;28;20042;-79
2023/11/11 12:00:48;;;;;;;4.10;0.70;;;12.50;91.60;;;;;;5056922;28;20021;-79
2023/11/11 12:03:14;;;;;;;2.15;0.70;;;12.40;91.30;;;;;;5059925;28;20017;-79
2023/11/11 12:05:40;;;;;;;5.82;0.75;;;12.30;91.00;;;;;;5062470;28;20013;-79
2023/11/11 12:08:07;;;;;;;4.53;0.88;;;12.10;90.90;;;;;;5061673;28;20017;-79
2023/11/11 12:10:54;;;;;;;4.47;0.80;;;12.00;90.90;;;;;;5061489;28;20103;-79
2023/11/11 12:13:21;;;;;;;2.88;0.63;;;11.80;90.90;;;;;;5060570;28;20041;-79
2023/11/11 12:15:51;;;;;;;2.47;0.60;;;11.70;90.80;;;;;;5060855;28;20016;-79
2023/11/11 12:18:18;;;;;;;4.03;0.50;;;11.70;91.50;;;;;;5061206;28;20061;-79
2023/11/11 12:20:46;;;;;;;3.17;0.70;;;12.10;92.20;;;;;;5049270;28;20021;-79
2023/11/11 12:23:12;;;;;;;3.53;0.60;;;12.60;93.00;;;;;;5050177;28;20127;-79
2023/11/11 12:25:39;;;;;;;4.00;0.57;;;13.00;92.30;;;;;;5040855;28;20025;-79
2023/11/11 12:28:06;;;;;;;3.45;0.85;;;13.20;92.00;;;;;;5041943;28;20381;-80
2023/11/11 12:30:33;;;;;;;2.63;0.82;;;13.60;92.50;;;;;;5041962;28;20048;-80
2023/11/11 12:33:08;;;;;;;4.68;0.60;;;14.00;92.00;;;;;;5040662;28;20037;-79
2023/11/11 12:35:35;;;;;;;2.72;0.80;;;14.30;91.00;;;;;;5043707;28;20427;-80
2023/11/11 12:38:21;;;;;;;4.20;0.93;;;14.30;90.10;;;;;;5039753;28;20056;-79
2023/11/11 12:40:48;;;;;;;4.22;0.68;;;14.30;89.20;;;;;;5041922;28;20497;-82
2023/11/11 12:43:15;;;;;;;2.33;0.50;;;14.10;87.70;;;;;;5042854;28;20029;-84
2023/11/11 12:45:54;;;;;;;4.93;0.60;;;13.90;87.20;;;;;;5040833;28;20032;-83
2023/11/11 12:48:23;;;;;;;2.97;0.60;;;13.80;88.20;;;;;;5043554;28;20025;-79
2023/11/11 12:50:49;;;;;;;4.15;0.80;;;13.90;88.80;;;;;;5040232;28;20119;-79